BWA264 TBPB-TQPF
Flight info
| Callsign | BWA264 |
|---|---|
| Flight time | 1h 6m |
| Altitude | 30000 |
| Route | BORUS DCT ZPATA L329 PJM |
| Aircraft | B738/M-SDE2E3FGHIRWXY/LB1 |
Departure
| Time | 2026-04-17 21:26 |
|---|---|
| Airport | Grantley Adams International Airport (TBPB) |
Arrival
| Time | 2026-04-17 22:32 |
|---|---|
| Airport | Clayton J. Lloyd International Airport (TQPF) |
| Time | Latitude | Longitude | Altitude | Speed | Heading |
|---|---|---|---|---|---|
| 2026-04-17 21:07 | 13.07851 | -59.48878 | 177 ft | 0 kts | 346° |
| 2026-04-17 21:16 | 13.07846 | -59.48877 | 177 ft | 2 kts | 346° |
| 2026-04-17 21:16 | 13.07831 | -59.48873 | 177 ft | 2 kts | 345° |
| 2026-04-17 21:16 | 13.07817 | -59.48869 | 176 ft | 2 kts | 346° |
| 2026-04-17 21:17 | 13.07802 | -59.48866 | 176 ft | 2 kts | 346° |
| 2026-04-17 21:17 | 13.07788 | -59.48862 | 176 ft | 1 kts | 346° |
| 2026-04-17 21:17 | 13.07778 | -59.48859 | 176 ft | 2 kts | 341° |
| 2026-04-17 21:17 | 13.07765 | -59.48852 | 176 ft | 2 kts | 322° |
| 2026-04-17 21:18 | 13.07754 | -59.48841 | 176 ft | 2 kts | 306° |
| 2026-04-17 21:18 | 13.07747 | -59.48828 | 176 ft | 2 kts | 291° |
| 2026-04-17 21:18 | 13.07744 | -59.48818 | 176 ft | 2 kts | 281° |
| 2026-04-17 21:18 | 13.07743 | -59.48798 | 176 ft | 1 kts | 260° |
| 2026-04-17 21:19 | 13.07745 | -59.48791 | 176 ft | 1 kts | 254° |
| 2026-04-17 21:19 | 13.07745 | -59.48789 | 176 ft | 0 kts | 255° |
| 2026-04-17 21:20 | 13.07745 | -59.48790 | 176 ft | 0 kts | 255° |
| 2026-04-17 21:21 | 13.07742 | -59.48800 | 176 ft | 2 kts | 248° |
| 2026-04-17 21:21 | 13.07723 | -59.48840 | 176 ft | 9 kts | 246° |
| 2026-04-17 21:21 | 13.07709 | -59.48884 | 176 ft | 9 kts | 258° |
| 2026-04-17 21:21 | 13.07690 | -59.48969 | 176 ft | 8 kts | 256° |
| 2026-04-17 21:22 | 13.07676 | -59.49028 | 176 ft | 8 kts | 256° |
| 2026-04-17 21:22 | 13.07661 | -59.49092 | 176 ft | 10 kts | 256° |
| 2026-04-17 21:22 | 13.07639 | -59.49177 | 175 ft | 13 kts | 256° |
| 2026-04-17 21:22 | 13.07613 | -59.49284 | 175 ft | 16 kts | 256° |
| 2026-04-17 21:23 | 13.07593 | -59.49365 | 175 ft | 18 kts | 256° |
| 2026-04-17 21:23 | 13.07547 | -59.49553 | 176 ft | 21 kts | 256° |
| 2026-04-17 21:23 | 13.07512 | -59.49699 | 176 ft | 20 kts | 256° |
| 2026-04-17 21:23 | 13.07474 | -59.49850 | 177 ft | 23 kts | 256° |
| 2026-04-17 21:24 | 13.07436 | -59.50006 | 178 ft | 22 kts | 256° |
| 2026-04-17 21:24 | 13.07399 | -59.50153 | 179 ft | 15 kts | 255° |
| 2026-04-17 21:24 | 13.07326 | -59.50200 | 178 ft | 13 kts | 167° |
| 2026-04-17 21:24 | 13.07241 | -59.50178 | 177 ft | 8 kts | 160° |
| 2026-04-17 21:25 | 13.07234 | -59.50150 | 177 ft | 0 kts | 76° |
| 2026-04-17 21:25 | 13.07235 | -59.50148 | 177 ft | 2 kts | 76° |
| 2026-04-17 21:25 | 13.07329 | -59.49756 | 175 ft | 87 kts | 76° |
| 2026-04-17 21:25 | 13.07530 | -59.48945 | 175 ft | 144 kts | 77° |
| 2026-04-17 21:26 | 13.07801 | -59.47899 | 710 ft | 148 kts | 76° |
| 2026-04-17 21:26 | 13.07992 | -59.47230 | 1127 ft | 151 kts | 73° |
| 2026-04-17 21:26 | 13.08845 | -59.46034 | 1821 ft | 171 kts | 33° |
| 2026-04-17 21:26 | 13.10062 | -59.45789 | 2305 ft | 195 kts | 358° |
| 2026-04-17 21:27 | 13.11427 | -59.46368 | 2666 ft | 228 kts | 326° |
| 2026-04-17 21:27 | 13.12502 | -59.47512 | 3652 ft | 222 kts | 314° |
| 2026-04-17 21:27 | 13.13559 | -59.48760 | 4106 ft | 243 kts | 317° |
| 2026-04-17 21:27 | 13.14814 | -59.49981 | 4693 ft | 256 kts | 321° |
| 2026-04-17 21:28 | 13.16155 | -59.51237 | 5289 ft | 270 kts | 319° |
| 2026-04-17 21:28 | 13.17530 | -59.52618 | 5981 ft | 280 kts | 316° |
| 2026-04-17 21:28 | 13.18877 | -59.54044 | 6822 ft | 283 kts | 315° |
| 2026-04-17 21:28 | 13.19782 | -59.55020 | 7382 ft | 285 kts | 315° |
| 2026-04-17 21:29 | 13.21611 | -59.56995 | 8502 ft | 290 kts | 315° |
| 2026-04-17 21:29 | 13.23001 | -59.58492 | 9365 ft | 293 kts | 314° |
| 2026-04-17 21:29 | 13.24400 | -59.59995 | 10232 ft | 297 kts | 314° |
| 2026-04-17 21:29 | 13.25863 | -59.61566 | 10863 ft | 311 kts | 313° |
| 2026-04-17 21:30 | 13.27379 | -59.63196 | 11413 ft | 326 kts | 313° |
| 2026-04-17 21:30 | 13.28990 | -59.64926 | 11918 ft | 342 kts | 313° |
| 2026-04-17 21:30 | 13.30660 | -59.66720 | 12544 ft | 353 kts | 313° |
| 2026-04-17 21:30 | 13.32353 | -59.68537 | 13363 ft | 357 kts | 313° |
| 2026-04-17 21:31 | 13.33504 | -59.69774 | 13676 ft | 359 kts | 312° |
| 2026-04-17 21:31 | 13.35830 | -59.72272 | 14766 ft | 362 kts | 312° |
| 2026-04-17 21:31 | 13.37559 | -59.74131 | 15631 ft | 365 kts | 312° |
| 2026-04-17 21:31 | 13.39323 | -59.76028 | 16385 ft | 369 kts | 312° |
| 2026-04-17 21:32 | 13.41084 | -59.77922 | 17206 ft | 371 kts | 312° |
| 2026-04-17 21:32 | 13.42876 | -59.79851 | 17947 ft | 375 kts | 312° |
| 2026-04-17 21:32 | 13.44691 | -59.81802 | 18748 ft | 376 kts | 311° |
| 2026-04-17 21:32 | 13.46498 | -59.83747 | 19492 ft | 378 kts | 311° |
| 2026-04-17 21:33 | 13.48303 | -59.85687 | 20228 ft | 380 kts | 311° |
| 2026-04-17 21:33 | 13.50112 | -59.87632 | 20997 ft | 380 kts | 310° |
| 2026-04-17 21:33 | 13.51940 | -59.89597 | 21705 ft | 381 kts | 310° |
| 2026-04-17 21:33 | 13.53779 | -59.91577 | 22349 ft | 384 kts | 310° |
| 2026-04-17 21:34 | 13.55622 | -59.93563 | 22959 ft | 386 kts | 310° |
| 2026-04-17 21:34 | 13.57478 | -59.95564 | 23468 ft | 391 kts | 309° |
| 2026-04-17 21:34 | 13.60659 | -59.98996 | 24287 ft | 400 kts | 309° |
| 2026-04-17 21:35 | 13.63226 | -60.01768 | 24934 ft | 406 kts | 309° |
| 2026-04-17 21:35 | 13.65189 | -60.03886 | 25492 ft | 409 kts | 308° |
| 2026-04-17 21:35 | 13.67145 | -60.05998 | 25918 ft | 414 kts | 308° |
| 2026-04-17 21:35 | 13.69147 | -60.08158 | 26462 ft | 416 kts | 308° |
| 2026-04-17 21:36 | 13.71122 | -60.10286 | 27128 ft | 414 kts | 308° |
| 2026-04-17 21:36 | 13.73107 | -60.12425 | 27739 ft | 413 kts | 308° |
| 2026-04-17 21:36 | 13.75092 | -60.14567 | 28317 ft | 412 kts | 307° |
| 2026-04-17 21:36 | 13.76412 | -60.15990 | 28679 ft | 413 kts | 307° |
| 2026-04-17 21:37 | 13.79049 | -60.18840 | 29486 ft | 412 kts | 307° |
| 2026-04-17 21:37 | 13.81019 | -60.20970 | 29856 ft | 414 kts | 307° |
| 2026-04-17 21:37 | 13.83010 | -60.23129 | 29895 ft | 416 kts | 307° |
| 2026-04-17 21:38 | 13.86973 | -60.27412 | 29900 ft | 412 kts | 307° |
| 2026-04-17 21:38 | 13.90895 | -60.31656 | 29901 ft | 413 kts | 307° |
| 2026-04-17 21:39 | 13.94847 | -60.35937 | 29900 ft | 412 kts | 307° |
| 2026-04-17 21:39 | 13.98805 | -60.40219 | 29904 ft | 411 kts | 307° |
| 2026-04-17 21:40 | 14.02744 | -60.44489 | 29902 ft | 413 kts | 307° |
| 2026-04-17 21:40 | 14.07154 | -60.48555 | 29909 ft | 441 kts | 316° |
| 2026-04-17 21:41 | 14.12327 | -60.52180 | 29904 ft | 454 kts | 320° |
| 2026-04-17 21:41 | 14.17639 | -60.55653 | 29905 ft | 450 kts | 321° |
| 2026-04-17 21:42 | 14.22944 | -60.59132 | 29906 ft | 453 kts | 320° |
| 2026-04-17 21:42 | 14.28255 | -60.62666 | 29908 ft | 452 kts | 320° |
| 2026-04-17 21:43 | 14.33487 | -60.66186 | 29907 ft | 451 kts | 320° |
| 2026-04-17 21:43 | 14.37845 | -60.69138 | 29912 ft | 450 kts | 319° |
| 2026-04-17 21:44 | 14.43946 | -60.73280 | 29913 ft | 449 kts | 319° |
| 2026-04-17 21:44 | 14.49174 | -60.76837 | 29915 ft | 451 kts | 319° |
| 2026-04-17 21:45 | 14.54420 | -60.80404 | 29918 ft | 449 kts | 319° |
| 2026-04-17 21:45 | 14.59647 | -60.83965 | 29925 ft | 450 kts | 319° |
| 2026-04-17 21:46 | 14.64879 | -60.87532 | 29926 ft | 451 kts | 319° |
| 2026-04-17 21:46 | 14.70108 | -60.91097 | 29930 ft | 450 kts | 319° |
| 2026-04-17 21:47 | 14.75343 | -60.94669 | 29933 ft | 450 kts | 319° |
| 2026-04-17 21:47 | 14.80585 | -60.98246 | 29931 ft | 452 kts | 319° |
| 2026-04-17 21:48 | 14.84958 | -61.01228 | 29931 ft | 447 kts | 319° |
| 2026-04-17 21:48 | 14.91011 | -61.05363 | 29929 ft | 448 kts | 319° |
| 2026-04-17 21:49 | 14.96227 | -61.08930 | 29928 ft | 447 kts | 319° |
| 2026-04-17 21:49 | 15.01439 | -61.12496 | 29922 ft | 444 kts | 319° |
| 2026-04-17 21:50 | 15.06607 | -61.16033 | 29926 ft | 446 kts | 319° |
| 2026-04-17 21:50 | 15.11767 | -61.19565 | 29929 ft | 444 kts | 319° |
| 2026-04-17 21:51 | 15.16940 | -61.23112 | 29930 ft | 444 kts | 319° |
| 2026-04-17 21:51 | 15.22100 | -61.26653 | 29925 ft | 440 kts | 319° |
| 2026-04-17 21:52 | 15.27213 | -61.30158 | 29926 ft | 444 kts | 319° |
| 2026-04-17 21:52 | 15.32350 | -61.33685 | 29931 ft | 444 kts | 318° |
| 2026-04-17 21:53 | 15.37479 | -61.37210 | 29928 ft | 438 kts | 319° |
| 2026-04-17 21:53 | 15.42591 | -61.40724 | 29938 ft | 440 kts | 319° |
| 2026-04-17 21:54 | 15.47665 | -61.44214 | 29940 ft | 440 kts | 319° |
| 2026-04-17 21:54 | 15.51912 | -61.47135 | 29936 ft | 437 kts | 319° |
| 2026-04-17 21:55 | 15.57834 | -61.51211 | 29940 ft | 435 kts | 319° |
| 2026-04-17 21:55 | 15.62874 | -61.54686 | 29937 ft | 438 kts | 318° |
| 2026-04-17 21:56 | 15.67964 | -61.58199 | 29936 ft | 434 kts | 318° |
| 2026-04-17 21:56 | 15.72156 | -61.61092 | 29934 ft | 435 kts | 319° |
| 2026-04-17 21:57 | 15.78042 | -61.65153 | 29937 ft | 436 kts | 318° |
| 2026-04-17 21:57 | 15.82235 | -61.68048 | 29934 ft | 432 kts | 318° |
| 2026-04-17 21:58 | 15.87293 | -61.71545 | 29929 ft | 437 kts | 319° |
| 2026-04-17 21:58 | 15.92324 | -61.75022 | 29929 ft | 433 kts | 318° |
| 2026-04-17 21:59 | 15.98132 | -61.79037 | 29937 ft | 431 kts | 318° |
| 2026-04-17 21:59 | 16.02338 | -61.81952 | 29932 ft | 435 kts | 318° |
| 2026-04-17 22:00 | 16.08197 | -61.86012 | 29939 ft | 433 kts | 318° |
| 2026-04-17 22:00 | 16.13207 | -61.89485 | 29949 ft | 431 kts | 318° |
| 2026-04-17 22:01 | 16.18242 | -61.92980 | 29951 ft | 435 kts | 318° |
| 2026-04-17 22:01 | 16.22417 | -61.95879 | 29945 ft | 435 kts | 319° |
| 2026-04-17 22:02 | 16.28300 | -61.99967 | 29934 ft | 436 kts | 319° |
| 2026-04-17 22:02 | 16.32500 | -62.02882 | 29935 ft | 434 kts | 319° |
| 2026-04-17 22:03 | 16.37537 | -62.06381 | 29939 ft | 433 kts | 319° |
| 2026-04-17 22:03 | 16.42554 | -62.09870 | 29933 ft | 433 kts | 319° |
| 2026-04-17 22:04 | 16.48445 | -62.13975 | 29940 ft | 437 kts | 319° |
| 2026-04-17 22:04 | 16.53509 | -62.17501 | 29939 ft | 435 kts | 319° |
| 2026-04-17 22:05 | 16.58546 | -62.21011 | 29947 ft | 432 kts | 319° |
| 2026-04-17 22:05 | 16.62751 | -62.23945 | 29948 ft | 436 kts | 319° |
| 2026-04-17 22:06 | 16.68613 | -62.28038 | 29953 ft | 437 kts | 320° |
| 2026-04-17 22:06 | 16.73661 | -62.31562 | 29956 ft | 434 kts | 320° |
| 2026-04-17 22:07 | 16.77846 | -62.34489 | 29954 ft | 438 kts | 320° |
| 2026-04-17 22:07 | 16.82889 | -62.38014 | 29956 ft | 437 kts | 320° |
| 2026-04-17 22:08 | 16.88776 | -62.42132 | 29955 ft | 434 kts | 320° |
| 2026-04-17 22:08 | 16.92994 | -62.45085 | 29949 ft | 437 kts | 320° |
| 2026-04-17 22:09 | 16.98872 | -62.49201 | 29947 ft | 425 kts | 320° |
| 2026-04-17 22:09 | 17.00476 | -62.50318 | 29947 ft | 413 kts | 320° |
| 2026-04-17 22:09 | 17.02823 | -62.51952 | 29837 ft | 399 kts | 320° |
| 2026-04-17 22:09 | 17.05897 | -62.54104 | 29283 ft | 395 kts | 320° |
| 2026-04-17 22:10 | 17.08175 | -62.55712 | 28876 ft | 399 kts | 320° |
| 2026-04-17 22:10 | 17.09733 | -62.56814 | 28548 ft | 402 kts | 321° |
| 2026-04-17 22:10 | 17.12801 | -62.58978 | 27831 ft | 399 kts | 321° |
| 2026-04-17 22:10 | 17.14337 | -62.60058 | 27481 ft | 397 kts | 321° |
| 2026-04-17 22:11 | 17.16615 | -62.61659 | 26968 ft | 393 kts | 322° |
| 2026-04-17 22:11 | 17.19631 | -62.63777 | 26291 ft | 389 kts | 322° |
| 2026-04-17 22:11 | 17.21114 | -62.64820 | 25949 ft | 386 kts | 323° |
| 2026-04-17 22:11 | 17.24088 | -62.66912 | 25276 ft | 382 kts | 322° |
| 2026-04-17 22:12 | 17.26279 | -62.68453 | 24778 ft | 379 kts | 323° |
| 2026-04-17 22:12 | 17.27721 | -62.69468 | 24450 ft | 377 kts | 323° |
| 2026-04-17 22:12 | 17.29893 | -62.70996 | 23951 ft | 374 kts | 323° |
| 2026-04-17 22:12 | 17.32063 | -62.72525 | 23450 ft | 370 kts | 323° |
| 2026-04-17 22:13 | 17.34166 | -62.74008 | 22970 ft | 367 kts | 324° |
| 2026-04-17 22:13 | 17.36298 | -62.75511 | 22476 ft | 364 kts | 324° |
| 2026-04-17 22:13 | 17.38378 | -62.76977 | 22007 ft | 361 kts | 324° |
| 2026-04-17 22:13 | 17.40455 | -62.78442 | 21529 ft | 358 kts | 324° |
| 2026-04-17 22:14 | 17.42514 | -62.79894 | 21039 ft | 354 kts | 324° |
| 2026-04-17 22:14 | 17.45192 | -62.81784 | 20427 ft | 345 kts | 325° |
| 2026-04-17 22:14 | 17.46519 | -62.82709 | 20114 ft | 341 kts | 326° |
| 2026-04-17 22:14 | 17.48546 | -62.83968 | 19639 ft | 340 kts | 330° |
| 2026-04-17 22:15 | 17.51396 | -62.85465 | 18735 ft | 348 kts | 333° |
| 2026-04-17 22:15 | 17.52861 | -62.86186 | 18250 ft | 347 kts | 334° |
| 2026-04-17 22:15 | 17.55049 | -62.87251 | 17541 ft | 347 kts | 334° |
| 2026-04-17 22:15 | 17.57962 | -62.88679 | 16586 ft | 345 kts | 334° |
| 2026-04-17 22:16 | 17.60129 | -62.89756 | 15885 ft | 344 kts | 333° |
| 2026-04-17 22:16 | 17.61565 | -62.90474 | 15417 ft | 343 kts | 334° |
| 2026-04-17 22:16 | 17.64402 | -62.91900 | 14477 ft | 341 kts | 334° |
| 2026-04-17 22:16 | 17.66534 | -62.92973 | 13766 ft | 339 kts | 334° |
| 2026-04-17 22:17 | 17.67964 | -62.93695 | 13283 ft | 338 kts | 334° |
| 2026-04-17 22:17 | 17.70050 | -62.94748 | 12572 ft | 336 kts | 334° |
| 2026-04-17 22:17 | 17.72092 | -62.95962 | 11844 ft | 335 kts | 322° |
| 2026-04-17 22:17 | 17.73957 | -62.98506 | 10944 ft | 333 kts | 292° |
| 2026-04-17 22:18 | 17.74326 | -63.00032 | 10713 ft | 325 kts | 277° |
| 2026-04-17 22:18 | 17.74346 | -63.02365 | 10407 ft | 313 kts | 267° |
| 2026-04-17 22:18 | 17.74159 | -63.04586 | 10179 ft | 299 kts | 265° |
| 2026-04-17 22:18 | 17.73956 | -63.06688 | 9856 ft | 291 kts | 265° |
| 2026-04-17 22:19 | 17.73749 | -63.08816 | 9360 ft | 292 kts | 265° |
| 2026-04-17 22:19 | 17.73476 | -63.11616 | 8719 ft | 291 kts | 266° |
| 2026-04-17 22:19 | 17.73472 | -63.13036 | 8386 ft | 290 kts | 279° |
| 2026-04-17 22:19 | 17.74410 | -63.15579 | 7755 ft | 284 kts | 309° |
| 2026-04-17 22:20 | 17.75876 | -63.16944 | 7269 ft | 279 kts | 333° |
| 2026-04-17 22:20 | 17.77648 | -63.17728 | 6791 ft | 277 kts | 343° |
| 2026-04-17 22:20 | 17.79473 | -63.18392 | 6308 ft | 276 kts | 343° |
| 2026-04-17 22:20 | 17.80666 | -63.18830 | 5990 ft | 276 kts | 343° |
| 2026-04-17 22:21 | 17.83072 | -63.19733 | 5357 ft | 276 kts | 343° |
| 2026-04-17 22:21 | 17.84898 | -63.20427 | 5007 ft | 274 kts | 343° |
| 2026-04-17 22:21 | 17.86657 | -63.21098 | 4973 ft | 269 kts | 343° |
| 2026-04-17 22:21 | 17.87849 | -63.21550 | 4973 ft | 271 kts | 343° |
| 2026-04-17 22:22 | 17.90218 | -63.22446 | 4978 ft | 272 kts | 343° |
| 2026-04-17 22:22 | 17.92007 | -63.23123 | 4981 ft | 272 kts | 343° |
| 2026-04-17 22:22 | 17.93216 | -63.23582 | 4976 ft | 272 kts | 343° |
| 2026-04-17 22:22 | 17.95520 | -63.24458 | 4804 ft | 261 kts | 344° |
| 2026-04-17 22:23 | 17.97210 | -63.25100 | 4518 ft | 257 kts | 344° |
| 2026-04-17 22:23 | 17.98334 | -63.25525 | 4325 ft | 254 kts | 344° |
| 2026-04-17 22:23 | 18.00539 | -63.26361 | 3950 ft | 252 kts | 344° |
| 2026-04-17 22:23 | 18.02196 | -63.26991 | 3657 ft | 251 kts | 345° |
| 2026-04-17 22:24 | 18.03302 | -63.27410 | 3467 ft | 250 kts | 344° |
| 2026-04-17 22:24 | 18.04941 | -63.28032 | 3176 ft | 249 kts | 344° |
| 2026-04-17 22:24 | 18.06567 | -63.28648 | 2888 ft | 248 kts | 345° |
| 2026-04-17 22:24 | 18.08177 | -63.29258 | 2635 ft | 246 kts | 345° |
| 2026-04-17 22:25 | 18.09807 | -63.29877 | 2590 ft | 247 kts | 345° |
| 2026-04-17 22:25 | 18.11423 | -63.30490 | 2582 ft | 247 kts | 344° |
| 2026-04-17 22:25 | 18.13585 | -63.31313 | 2581 ft | 247 kts | 345° |
| 2026-04-17 22:25 | 18.14676 | -63.31728 | 2579 ft | 246 kts | 345° |
| 2026-04-17 22:26 | 18.16837 | -63.32453 | 2578 ft | 243 kts | 354° |
| 2026-04-17 22:26 | 18.18463 | -63.32417 | 2573 ft | 222 kts | 24° |
| 2026-04-17 22:26 | 18.19310 | -63.31910 | 2578 ft | 207 kts | 46° |
| 2026-04-17 22:26 | 18.20049 | -63.30633 | 2581 ft | 200 kts | 75° |
| 2026-04-17 22:27 | 18.20325 | -63.29262 | 2584 ft | 186 kts | 82° |
| 2026-04-17 22:27 | 18.20484 | -63.27938 | 2593 ft | 180 kts | 84° |
| 2026-04-17 22:27 | 18.20596 | -63.26189 | 2552 ft | 182 kts | 87° |
| 2026-04-17 22:27 | 18.20623 | -63.25296 | 2405 ft | 183 kts | 88° |
| 2026-04-17 22:28 | 18.20641 | -63.23953 | 2160 ft | 180 kts | 89° |
| 2026-04-17 22:28 | 18.20644 | -63.22209 | 1806 ft | 179 kts | 89° |
| 2026-04-17 22:28 | 18.20637 | -63.20934 | 1690 ft | 172 kts | 89° |
| 2026-04-17 22:28 | 18.20631 | -63.20102 | 1684 ft | 169 kts | 89° |
| 2026-04-17 22:29 | 18.20621 | -63.18864 | 1687 ft | 167 kts | 90° |
| 2026-04-17 22:29 | 18.20607 | -63.17664 | 1682 ft | 159 kts | 90° |
| 2026-04-17 22:29 | 18.20596 | -63.16566 | 1692 ft | 148 kts | 90° |
| 2026-04-17 22:29 | 18.20586 | -63.15115 | 1684 ft | 149 kts | 89° |
| 2026-04-17 22:30 | 18.20577 | -63.14018 | 1600 ft | 150 kts | 90° |
| 2026-04-17 22:30 | 18.20566 | -63.12940 | 1401 ft | 141 kts | 90° |
| 2026-04-17 22:30 | 18.20559 | -63.12286 | 1282 ft | 132 kts | 90° |
| 2026-04-17 22:30 | 18.20544 | -63.11006 | 1049 ft | 130 kts | 90° |
| 2026-04-17 22:31 | 18.20528 | -63.10036 | 880 ft | 134 kts | 90° |
| 2026-04-17 22:31 | 18.20507 | -63.09050 | 724 ft | 134 kts | 91° |
| 2026-04-17 22:31 | 18.20496 | -63.08392 | 590 ft | 132 kts | 89° |
| 2026-04-17 22:31 | 18.20495 | -63.07112 | 349 ft | 132 kts | 90° |
| 2026-04-17 22:32 | 18.20492 | -63.06456 | 228 ft | 132 kts | 90° |
| 2026-04-17 22:32 | 18.20479 | -63.05280 | 109 ft | 79 kts | 90° |
| 2026-04-17 22:32 | 18.20475 | -63.04984 | 104 ft | 24 kts | 90° |
| 2026-04-17 22:32 | 18.20474 | -63.04861 | 101 ft | 25 kts | 90° |
| 2026-04-17 22:33 | 18.20472 | -63.04691 | 96 ft | 21 kts | 90° |
| 2026-04-17 22:33 | 18.20480 | -63.04620 | 94 ft | 5 kts | 188° |
| 2026-04-17 22:33 | 18.20470 | -63.04659 | 95 ft | 5 kts | 272° |
| 2026-04-17 22:33 | 18.20472 | -63.04733 | 97 ft | 6 kts | 270° |
| 2026-04-17 22:34 | 18.20472 | -63.04760 | 98 ft | 4 kts | 270° |
| 2026-04-17 22:34 | 18.20472 | -63.04807 | 99 ft | 9 kts | 271° |
| 2026-04-17 22:34 | 18.20474 | -63.04884 | 101 ft | 10 kts | 271° |
| 2026-04-17 22:34 | 18.20475 | -63.04948 | 103 ft | 7 kts | 271° |
| 2026-04-17 22:35 | 18.20476 | -63.05032 | 105 ft | 10 kts | 270° |
| 2026-04-17 22:35 | 18.20476 | -63.05098 | 106 ft | 7 kts | 270° |
| 2026-04-17 22:35 | 18.20477 | -63.05150 | 107 ft | 6 kts | 276° |
| 2026-04-17 22:35 | 18.20503 | -63.05170 | 107 ft | 4 kts | 355° |
| 2026-04-17 22:36 | 18.20523 | -63.05170 | 107 ft | 3 kts | 1° |
| 2026-04-17 22:36 | 18.20548 | -63.05170 | 108 ft | 3 kts | 1° |
| 2026-04-17 22:36 | 18.20571 | -63.05169 | 108 ft | 3 kts | 1° |
| 2026-04-17 22:36 | 18.20593 | -63.05165 | 108 ft | 2 kts | 36° |
| 2026-04-17 22:37 | 18.20596 | -63.05141 | 108 ft | 3 kts | 95° |
| 2026-04-17 22:37 | 18.20602 | -63.05101 | 107 ft | 4 kts | 47° |
| 2026-04-17 22:37 | 18.20629 | -63.05094 | 107 ft | 3 kts | 2° |
| 2026-04-17 22:37 | 18.20633 | -63.05093 | 108 ft | 0 kts | 17° |
| 2026-04-17 22:38 | 18.20638 | -63.05090 | 108 ft | 1 kts | 39° |
| 2026-04-17 22:38 | 18.20643 | -63.05084 | 109 ft | 0 kts | 46° |